createdAt,value
2023-01-07T00:01:47.245Z,10.41
2023-01-07T00:05:50.312Z,10.38
2023-01-07T00:09:53.348Z,10.36
2023-01-07T00:13:58.379Z,10.48
2023-01-07T00:18:02.786Z,10.50
2023-01-07T00:22:05.904Z,10.50
2023-01-07T00:26:10.682Z,10.53
2023-01-07T00:30:14.641Z,10.62
2023-01-07T00:34:23.538Z,10.78
2023-01-07T00:38:26.596Z,10.87
2023-01-07T00:42:47.084Z,10.79
2023-01-07T00:46:50.119Z,10.75
2023-01-07T00:50:55.047Z,10.77
2023-01-07T00:54:59.120Z,10.83
2023-01-07T00:59:02.199Z,10.85
2023-01-07T01:03:05.325Z,10.85
2023-01-07T01:07:09.818Z,10.93
2023-01-07T01:11:14.332Z,10.98
2023-01-07T01:15:18.528Z,11.08
2023-01-07T01:19:21.598Z,11.10
2023-01-07T01:23:25.964Z,11.14
2023-01-07T01:27:30.615Z,11.16
2023-01-07T01:31:33.710Z,11.16
2023-01-07T01:35:40.978Z,11.19
2023-01-07T01:39:45.652Z,11.17
2023-01-07T01:43:48.842Z,11.16
2023-01-07T01:47:57.540Z,11.16
2023-01-07T01:52:05.673Z,11.24
2023-01-07T01:56:14.005Z,11.23
2023-01-07T02:00:17.709Z,11.21
2023-01-07T02:04:28.159Z,11.20
2023-01-07T02:08:31.507Z,11.11
2023-01-07T02:12:57.880Z,11.14
2023-01-07T02:17:08.292Z,11.07
2023-01-07T02:21:25.246Z,11.07
2023-01-07T02:25:52.650Z,11.01
2023-01-07T02:30:34.745Z,11.02
2023-01-07T02:34:45.206Z,11.05
2023-01-07T02:39:03.374Z,11.09
2023-01-07T02:43:13.361Z,11.01
2023-01-07T02:47:20.010Z,10.99
2023-01-07T02:51:33.012Z,10.96
2023-01-07T02:55:44.039Z,10.84
2023-01-07T03:00:04.196Z,10.90
2023-01-07T03:04:22.769Z,10.85
2023-01-07T03:08:47.516Z,10.71
2023-01-07T03:12:58.380Z,10.79
2023-01-07T03:17:07.137Z,10.83
2023-01-07T03:21:14.740Z,10.77
2023-01-07T03:25:22.659Z,10.71
2023-01-07T03:29:27.272Z,10.71
2023-01-07T03:33:38.270Z,10.69
2023-01-07T03:37:43.864Z,10.58
2023-01-07T03:42:08.119Z,10.59
2023-01-07T03:46:12.114Z,10.67
2023-01-07T03:50:16.538Z,10.70
2023-01-07T03:54:21.449Z,10.63
2023-01-07T03:58:25.883Z,10.63
2023-01-07T04:02:29.431Z,10.66
2023-01-07T04:06:32.586Z,10.67
2023-01-07T04:10:35.824Z,10.71
2023-01-07T04:14:40.349Z,10.80
2023-01-07T04:18:43.453Z,10.80
2023-01-07T04:22:46.622Z,10.83
2023-01-07T04:26:49.941Z,10.85
2023-01-07T04:30:55.268Z,10.74
2023-01-07T04:34:58.944Z,10.61
2023-01-07T04:39:03.777Z,10.63
2023-01-07T04:43:07.018Z,10.55
2023-01-07T04:47:11.439Z,10.56
2023-01-07T04:51:14.704Z,10.60
2023-01-07T04:55:18.504Z,10.64
2023-01-07T04:59:23.295Z,10.64
2023-01-07T05:03:27.808Z,10.66
2023-01-07T05:07:31.403Z,10.66
2023-01-07T05:11:35.440Z,10.70
2023-01-07T05:15:40.054Z,10.71
2023-01-07T05:19:44.539Z,10.72
2023-01-07T05:23:49.548Z,10.74
2023-01-07T05:27:52.748Z,10.72
2023-01-07T05:31:58.847Z,10.61
2023-01-07T05:36:04.165Z,10.65
2023-01-07T05:40:09.981Z,10.58
2023-01-07T05:44:13.128Z,10.54
2023-01-07T05:48:16.819Z,10.47
2023-01-07T05:52:21.181Z,10.56
2023-01-07T05:56:24.236Z,10.47
2023-01-07T06:00:27.239Z,10.42
2023-01-07T06:04:30.682Z,10.35
2023-01-07T06:08:35.197Z,10.17
2023-01-07T06:12:38.229Z,9.94
2023-01-07T06:16:42.004Z,9.77
2023-01-07T06:20:45.092Z,9.60
2023-01-07T06:24:49.434Z,9.54
2023-01-07T06:28:53.045Z,9.42
2023-01-07T06:32:56.279Z,9.55
2023-01-07T06:36:59.328Z,9.68
2023-01-07T06:41:03.872Z,9.74
2023-01-07T06:45:07.699Z,9.82
2023-01-07T06:49:11.092Z,9.83
2023-01-07T06:53:14.325Z,9.95
2023-01-07T06:57:18.768Z,10.09
2023-01-07T07:01:26.133Z,10.08
2023-01-07T07:05:29.713Z,10.13
2023-01-07T07:09:32.765Z,10.33
2023-01-07T07:13:37.221Z,10.27
2023-01-07T07:17:40.240Z,10.36
2023-01-07T07:21:43.354Z,10.34
2023-01-07T07:25:46.382Z,10.38
2023-01-07T07:29:50.769Z,10.42
2023-01-07T07:33:53.849Z,10.45
2023-01-07T07:37:56.891Z,10.43
2023-01-07T07:41:59.894Z,10.47
2023-01-07T07:46:04.756Z,10.40
2023-01-07T07:50:08.249Z,10.48
2023-01-07T07:54:11.309Z,10.50
2023-01-07T07:58:14.905Z,10.64
2023-01-07T08:02:20.195Z,10.58
2023-01-07T08:06:23.499Z,10.58
2023-01-07T08:10:28.183Z,10.66
2023-01-07T08:14:31.256Z,10.70
2023-01-07T08:18:35.740Z,10.68
2023-01-07T08:22:39.049Z,10.62
2023-01-07T08:26:42.288Z,10.58
2023-01-07T08:30:45.415Z,10.53
2023-01-07T08:34:49.948Z,10.54
2023-01-07T08:38:53.785Z,10.55
2023-01-07T08:42:59.611Z,10.49
2023-01-07T08:47:03.002Z,10.49
2023-01-07T08:51:08.203Z,10.54
2023-01-07T08:55:11.232Z,10.59
2023-01-07T08:59:14.259Z,10.64
2023-01-07T09:03:17.300Z,10.64
2023-01-07T09:07:21.747Z,10.90
2023-01-07T09:11:24.824Z,11.65
2023-01-07T09:15:27.911Z,12.45
2023-01-07T09:19:30.960Z,12.98
2023-01-07T09:23:35.575Z,13.18
2023-01-07T09:27:39.373Z,13.35
2023-01-07T09:31:42.560Z,13.22
2023-01-07T09:35:45.816Z,13.27
2023-01-07T09:39:50.413Z,13.50
2023-01-07T09:43:59.759Z,12.70
2023-01-07T09:48:13.615Z,12.35
2023-01-07T09:52:21.758Z,12.15
2023-01-07T09:56:28.611Z,12.69
2023-01-07T10:00:35.186Z,12.59
2023-01-07T10:04:49.857Z,12.39
2023-01-07T10:09:04.287Z,12.73
2023-01-07T10:13:33.749Z,13.25
2023-01-07T10:17:46.969Z,13.15
2023-01-07T10:21:55.220Z,12.71
2023-01-07T10:25:59.947Z,12.93
2023-01-07T10:30:12.909Z,13.03
2023-01-07T10:34:20.723Z,13.07
2023-01-07T10:38:25.963Z,13.00
2023-01-07T10:42:36.831Z,13.61
2023-01-07T10:46:52.655Z,14.32
2023-01-07T10:51:39.860Z,14.11
2023-01-07T10:55:53.388Z,13.48
2023-01-07T11:00:02.498Z,13.24
2023-01-07T11:04:14.382Z,13.61
2023-01-07T11:08:22.929Z,13.16
2023-01-07T11:12:33.847Z,13.76
2023-01-07T11:16:41.906Z,13.95
2023-01-07T11:20:49.539Z,13.12
2023-01-07T11:24:53.212Z,13.49
2023-01-07T11:28:58.940Z,13.14
2023-01-07T11:33:04.188Z,13.45
2023-01-07T11:37:12.591Z,13.21
2023-01-07T11:41:24.560Z,13.19
2023-01-07T11:45:29.607Z,13.88
2023-01-07T11:49:33.003Z,14.30
2023-01-07T11:53:39.151Z,14.14
2023-01-07T11:57:55.331Z,13.64
2023-01-07T12:02:04.013Z,13.84
2023-01-07T12:06:10.483Z,13.94
2023-01-07T12:10:29.105Z,14.25
2023-01-07T12:14:34.641Z,14.44
2023-01-07T12:18:57.436Z,14.41
2023-01-07T12:23:12.837Z,13.85
2023-01-07T12:27:29.124Z,13.56
2023-01-07T12:31:42.921Z,13.02
2023-01-07T12:35:46.543Z,13.17
2023-01-07T12:39:57.033Z,12.64
2023-01-07T12:44:04.353Z,12.73
2023-01-07T12:48:18.194Z,12.63
2023-01-07T12:52:29.327Z,12.83
2023-01-07T12:56:38.365Z,13.31
2023-01-07T13:00:50.292Z,13.20
2023-01-07T13:05:01.743Z,13.14
2023-01-07T13:09:10.649Z,13.60
2023-01-07T13:13:19.539Z,13.83
2023-01-07T13:17:27.728Z,13.77
2023-01-07T13:21:31.283Z,13.18
2023-01-07T13:25:47.245Z,13.30
2023-01-07T13:30:03.538Z,13.59
2023-01-07T13:34:22.183Z,13.51
2023-01-07T13:38:48.860Z,12.67
2023-01-07T13:42:55.983Z,13.17
2023-01-07T13:46:59.622Z,13.33
2023-01-07T13:51:07.060Z,13.25
2023-01-07T13:55:33.492Z,12.87
2023-01-07T13:59:49.594Z,13.23
2023-01-07T14:03:54.244Z,12.69
2023-01-07T14:08:02.779Z,12.39
2023-01-07T14:12:35.545Z,12.38
2023-01-07T14:16:44.991Z,12.23
2023-01-07T14:20:52.805Z,12.16
2023-01-07T14:25:09.523Z,12.28
2023-01-07T14:29:35.156Z,12.06
2023-01-07T14:33:40.799Z,11.83
2023-01-07T14:37:47.065Z,11.73
2023-01-07T14:42:23.489Z,11.74
2023-01-07T14:46:57.948Z,11.75
2023-01-07T14:51:37.386Z,11.62
2023-01-07T14:55:54.746Z,11.47
2023-01-07T15:00:36.010Z,11.39
2023-01-07T15:05:11.014Z,11.31
2023-01-07T15:09:34.547Z,11.18
2023-01-07T15:14:00.546Z,11.11
2023-01-07T15:18:07.817Z,11.12
2023-01-07T15:22:38.488Z,11.15
2023-01-07T15:26:49.953Z,11.10
2023-01-07T15:31:00.482Z,10.91
2023-01-07T15:35:10.563Z,10.74
2023-01-07T15:39:25.099Z,10.62
2023-01-07T15:43:30.454Z,10.45
2023-01-07T15:47:41.429Z,10.35
2023-01-07T15:51:48.028Z,10.24
2023-01-07T15:55:57.195Z,10.16
2023-01-07T16:00:00.358Z,10.06
2023-01-07T16:04:03.796Z,9.98
2023-01-07T16:08:07.413Z,10.01
2023-01-07T16:12:26.638Z,10.02
2023-01-07T16:16:31.661Z,9.94
2023-01-07T16:20:37.697Z,9.92
2023-01-07T16:24:47.780Z,9.86
2023-01-07T16:28:55.759Z,9.85
2023-01-07T16:32:59.290Z,9.82
2023-01-07T16:37:04.771Z,9.78
2023-01-07T16:41:08.349Z,9.66
2023-01-07T16:45:24.448Z,9.53
2023-01-07T16:49:29.900Z,9.54
2023-01-07T16:53:34.277Z,9.53
2023-01-07T16:57:43.134Z,9.51
2023-01-07T17:01:47.897Z,9.63
2023-01-07T17:06:03.368Z,9.80
2023-01-07T17:10:07.508Z,10.19
2023-01-07T17:14:44.122Z,10.32
2023-01-07T17:18:48.803Z,10.44
2023-01-07T17:22:51.860Z,10.68
2023-01-07T17:26:58.661Z,10.72
2023-01-07T17:35:48.970Z,10.71
2023-01-07T17:39:52.073Z,10.72
2023-01-07T17:43:55.218Z,10.66
2023-01-07T17:47:59.964Z,10.66
2023-01-07T17:52:04.623Z,10.79
2023-01-07T17:56:08.283Z,10.89
2023-01-07T18:00:16.731Z,11.08
2023-01-07T18:04:21.506Z,11.06
2023-01-07T18:08:26.093Z,11.06
2023-01-07T18:12:31.848Z,11.20
2023-01-07T18:16:35.183Z,11.19
2023-01-07T18:20:38.324Z,11.23
2023-01-07T18:24:42.888Z,11.26
2023-01-07T18:28:45.991Z,11.33
2023-01-07T18:32:51.365Z,11.40
2023-01-07T18:36:54.566Z,11.39
2023-01-07T18:40:59.093Z,11.45
2023-01-07T18:45:02.307Z,11.45
2023-01-07T18:49:05.538Z,11.42
2023-01-07T18:53:09.630Z,11.51
2023-01-07T18:57:14.497Z,11.45
2023-01-07T19:01:19.106Z,11.47
2023-01-07T19:05:22.321Z,11.56
2023-01-07T19:09:25.402Z,11.66
2023-01-07T19:13:29.949Z,11.57
2023-01-07T19:17:33.942Z,11.63
2023-01-07T19:21:37.418Z,11.61
2023-01-07T19:25:40.531Z,11.64
2023-01-07T19:29:45.008Z,11.55
2023-01-07T19:33:48.171Z,11.53
2023-01-07T19:37:51.625Z,11.51
2023-01-07T19:41:55.096Z,11.50
2023-01-07T19:45:59.652Z,11.51
2023-01-07T19:50:03.006Z,11.42
2023-01-07T19:54:07.241Z,11.27
2023-01-07T19:58:12.959Z,10.95
2023-01-07T20:02:17.916Z,10.83
2023-01-07T20:06:23.809Z,10.79
2023-01-07T20:10:27.107Z,10.71
2023-01-07T20:14:30.183Z,10.41
2023-01-07T20:18:38.250Z,10.26
2023-01-07T20:22:41.348Z,10.31
2023-01-07T20:26:44.405Z,10.30
2023-01-07T20:30:47.890Z,10.27
2023-01-07T20:34:52.290Z,10.28
2023-01-07T20:38:55.733Z,10.19
2023-01-07T20:42:58.821Z,10.16
2023-01-07T20:47:02.112Z,10.17
2023-01-07T20:51:08.416Z,10.18
2023-01-07T20:55:11.639Z,10.25
2023-01-07T20:59:15.970Z,10.33
2023-01-07T21:03:19.457Z,10.33
2023-01-07T21:07:23.936Z,10.40
2023-01-07T21:11:27.308Z,10.41
2023-01-07T21:15:30.435Z,10.42
2023-01-07T21:19:33.578Z,10.43
2023-01-07T21:23:38.355Z,10.40
2023-01-07T21:27:41.832Z,10.50
2023-01-07T21:31:45.447Z,10.50
2023-01-07T21:35:48.597Z,10.53
2023-01-07T21:39:53.090Z,10.61
2023-01-07T21:43:56.390Z,10.69
2023-01-07T21:47:59.501Z,10.81
2023-01-07T21:52:02.611Z,10.83
2023-01-07T21:56:09.236Z,10.79
2023-01-07T22:00:14.193Z,10.83
2023-01-07T22:04:17.400Z,10.83
2023-01-07T22:08:20.568Z,10.85
2023-01-07T22:12:25.804Z,10.86
2023-01-07T22:16:30.580Z,10.87
2023-01-07T22:20:33.693Z,10.88
2023-01-07T22:24:36.853Z,10.90
2023-01-07T22:28:42.127Z,10.87
2023-01-07T22:32:45.416Z,10.77
2023-01-07T22:36:52.044Z,10.71
2023-01-07T22:40:55.885Z,10.58
2023-01-07T22:45:03.788Z,10.58
2023-01-07T22:49:07.387Z,10.72
2023-01-07T22:53:12.091Z,10.70
2023-01-07T22:57:15.647Z,10.71
2023-01-07T23:01:23.932Z,10.77
2023-01-07T23:05:27.300Z,10.78
2023-01-07T23:09:30.347Z,10.79
2023-01-07T23:13:33.770Z,10.81
2023-01-07T23:17:38.187Z,10.79
2023-01-07T23:21:43.402Z,10.76
2023-01-07T23:25:47.212Z,10.71
2023-01-07T23:29:50.257Z,10.66
2023-01-07T23:33:54.678Z,10.59
2023-01-07T23:37:57.887Z,10.55
2023-01-07T23:42:01.395Z,10.54
2023-01-07T23:46:07.501Z,10.53
2023-01-07T23:50:12.828Z,10.49
2023-01-07T23:54:15.890Z,10.44
2023-01-07T23:58:18.956Z,10.40
